Time;durP1;ratioP1;P1;durP2;ratioP2;P2;SDS_P1;SDS_P2;PMS_P1;PMS_P2;Temp;Humidity;BMP_temperature;BMP_pressure;BME280_temperature;BME280_humidity;BME280_pressure;Samples;Min_cycle;Max_cycle;Signal;HPM_P1;HPM_P2
2024/02/04 00:00:40;;;;;;;;;;;;;;;2.55;100.00;98886.38;109271;1251;59559;-64
2024/02/04 00:03:07;;;;;;;;;;;;;;;2.56;100.00;98885.50;109256;1252;59015;-63
2024/02/04 00:05:35;;;;;;;;;;;;;;;2.58;100.00;98885.27;109284;1253;73353;-66
2024/02/04 00:08:03;;;;;;;;;;;;;;;2.61;100.00;98883.75;109249;1253;66925;-62
2024/02/04 00:10:31;;;;;;;;;;;;;;;2.64;100.00;98880.36;109231;1253;72755;-61
2024/02/04 00:12:59;;;;;;;;;;;;;;;2.66;100.00;98878.63;109247;1253;61371;-62
2024/02/04 00:15:27;;;;;;;;;;;;;;;2.69;100.00;98870.28;109305;1253;59913;-62
2024/02/04 00:17:55;;;;;;;;;;;;;;;2.71;100.00;98867.67;109206;1253;75240;-62
2024/02/04 00:20:25;;;;;;;;;;;;;;;2.73;100.00;98865.92;109305;1253;66918;-62
2024/02/04 00:22:52;;;;;;;;;;;;;;;2.74;100.00;98858.88;109224;1253;72707;-63
2024/02/04 00:25:20;;;;;;;;;;;;;;;2.76;100.00;98862.92;109098;1253;59919;-62
2024/02/04 00:27:48;;;;;;;;;;;;;;;2.79;100.00;98863.14;109217;1253;59236;-65
2024/02/04 00:30:15;;;;;;;;;;;;;;;2.82;100.00;98861.61;109240;1253;74718;-63
2024/02/04 00:32:43;;;;;;;;;;;;;;;2.84;100.00;98861.25;109129;1253;65164;-62
2024/02/04 00:35:11;;;;;;;;;;;;;;;2.85;100.00;98864.17;109242;1252;72374;-63
2024/02/04 00:37:38;;;;;;;;;;;;;;;2.87;100.00;98856.48;109191;1253;59706;-62
2024/02/04 00:40:06;;;;;;;;;;;;;;;2.89;100.00;98859.46;109216;1253;62163;-65
2024/02/04 00:42:34;;;;;;;;;;;;;;;2.91;100.00;98849.60;109239;1253;73702;-62
2024/02/04 00:45:01;;;;;;;;;;;;;;;2.94;100.00;98849.66;109218;1253;65841;-61
2024/02/04 00:47:29;;;;;;;;;;;;;;;2.96;100.00;98847.24;109245;1253;72824;-62
2024/02/04 00:49:56;;;;;;;;;;;;;;;2.98;100.00;98845.61;109212;1255;60973;-62
2024/02/04 00:52:24;;;;;;;;;;;;;;;3.00;100.00;98844.55;109140;1253;60317;-63
2024/02/04 00:54:51;;;;;;;;;;;;;;;3.02;100.00;98844.79;109319;1253;74743;-62
2024/02/04 00:57:19;;;;;;;;;;;;;;;3.04;100.00;98846.48;109179;1253;65870;-62
2024/02/04 00:59:46;;;;;;;;;;;;;;;3.07;100.00;98851.19;109010;1253;71482;-62
2024/02/04 01:02:14;;;;;;;;;;;;;;;3.09;100.00;98850.54;109153;1253;61629;-62
2024/02/04 01:04:41;;;;;;;;;;;;;;;3.12;100.00;98853.61;109128;1253;59578;-62
2024/02/04 01:07:09;;;;;;;;;;;;;;;3.15;100.00;98858.48;109207;1253;74642;-61
2024/02/04 01:09:36;;;;;;;;;;;;;;;3.18;100.00;98855.93;109170;1253;66966;-62
2024/02/04 01:12:04;;;;;;;;;;;;;;;3.22;100.00;98855.23;109206;1253;72787;-62
2024/02/04 01:14:32;;;;;;;;;;;;;;;3.24;100.00;98858.90;109126;1253;59362;-61
2024/02/04 01:16:59;;;;;;;;;;;;;;;3.27;100.00;98861.14;109197;1253;58927;-61
2024/02/04 01:19:27;;;;;;;;;;;;;;;3.29;100.00;98859.23;109203;1253;74517;-62
2024/02/04 01:21:54;;;;;;;;;;;;;;;3.32;100.00;98855.98;109335;1253;67345;-63
2024/02/04 01:24:22;;;;;;;;;;;;;;;3.33;100.00;98859.80;109116;1255;72731;-62
2024/02/04 01:26:50;;;;;;;;;;;;;;;3.34;100.00;98859.85;109336;1253;60934;-62
2024/02/04 01:29:17;;;;;;;;;;;;;;;3.36;100.00;98858.08;109170;1253;59000;-62
2024/02/04 01:31:44;;;;;;;;;;;;;;;3.38;100.00;98862.96;109197;1253;74685;-63
2024/02/04 01:34:12;;;;;;;;;;;;;;;3.40;100.00;98863.43;109151;1253;67070;-68
2024/02/04 01:36:40;;;;;;;;;;;;;;;3.41;100.00;98861.44;109215;1253;73154;-62
2024/02/04 01:39:07;;;;;;;;;;;;;;;3.44;100.00;98865.96;109052;1253;60940;-62
2024/02/04 01:41:35;;;;;;;;;;;;;;;3.45;100.00;98866.69;109164;1253;58905;-63
2024/02/04 01:44:02;;;;;;;;;;;;;;;3.47;100.00;98865.05;109336;1253;74740;-63
2024/02/04 01:46:30;;;;;;;;;;;;;;;3.48;100.00;98867.53;109178;1253;66871;-65
2024/02/04 01:48:57;;;;;;;;;;;;;;;3.49;100.00;98862.96;109199;1253;72661;-62
2024/02/04 01:51:25;;;;;;;;;;;;;;;3.53;100.00;98859.45;109303;1253;59926;-63
2024/02/04 01:53:53;;;;;;;;;;;;;;;3.54;100.00;98859.35;109171;1253;59912;-62
2024/02/04 01:56:21;;;;;;;;;;;;;;;3.55;100.00;98865.34;109142;1253;73508;-63
2024/02/04 01:58:48;;;;;;;;;;;;;;;3.56;100.00;98864.22;109066;1253;66663;-62
2024/02/04 02:01:16;;;;;;;;;;;;;;;3.57;100.00;98869.56;109162;1253;72766;-63
2024/02/04 02:03:44;;;;;;;;;;;;;;;3.59;100.00;98869.27;109064;1253;60238;-62
2024/02/04 02:06:13;;;;;;;;;;;;;;;3.61;100.00;98868.71;109201;1253;59883;-62
2024/02/04 02:08:41;;;;;;;;;;;;;;;3.62;100.00;98867.89;109182;1253;73264;-63
2024/02/04 02:11:11;;;;;;;;;;;;;;;3.62;100.00;98868.65;109165;1253;67453;-62
2024/02/04 02:13:38;;;;;;;;;;;;;;;3.64;100.00;98868.84;109082;1253;72693;-62
2024/02/04 02:16:11;;;;;;;;;;;;;;;3.65;100.00;98873.27;109022;1253;61054;-62
2024/02/04 02:18:48;;;;;;;;;;;;;;;3.67;100.00;98872.65;109088;1253;59012;-62
2024/02/04 02:21:18;;;;;;;;;;;;;;;3.67;100.00;98876.20;109113;1253;74787;-62
2024/02/04 02:24:06;;;;;;;;;;;;;;;3.69;100.00;98872.90;109154;1253;66803;-62
2024/02/04 02:26:38;;;;;;;;;;;;;;;3.71;100.00;98878.00;109153;1253;73277;-62
2024/02/04 02:29:05;;;;;;;;;;;;;;;3.72;100.00;98880.64;109350;1253;59662;-62
2024/02/04 02:31:33;;;;;;;;;;;;;;;3.73;100.00;98876.67;109165;1253;59867;-62
2024/02/04 02:34:13;;;;;;;;;;;;;;;3.73;100.00;98874.41;109145;1253;74734;-63
2024/02/04 02:37:10;;;;;;;;;;;;;;;3.73;100.00;98874.23;109052;1253;66962;-63
2024/02/04 02:40:01;;;;;;;;;;;;;;;3.72;100.00;98873.75;109122;1253;71832;-62
2024/02/04 02:42:28;;;;;;;;;;;;;;;3.73;100.00;98874.93;108977;1253;60956;-62
2024/02/04 02:44:56;;;;;;;;;;;;;;;3.73;100.00;98872.52;109135;1253;58984;-63
2024/02/04 02:47:24;;;;;;;;;;;;;;;3.73;100.00;98873.98;109142;1253;74740;-65
2024/02/04 02:49:52;;;;;;;;;;;;;;;3.75;100.00;98868.50;109211;1253;68122;-63
2024/02/04 02:52:20;;;;;;;;;;;;;;;3.75;100.00;98872.77;109120;1253;71438;-63
2024/02/04 02:54:48;;;;;;;;;;;;;;;3.75;100.00;98873.79;109116;1253;60979;-63
2024/02/04 02:57:15;;;;;;;;;;;;;;;3.77;100.00;98873.54;109106;1253;59368;-63
2024/02/04 02:59:43;;;;;;;;;;;;;;;3.77;100.00;98873.58;109003;1253;73468;-63
2024/02/04 03:02:11;;;;;;;;;;;;;;;3.77;100.00;98873.81;109174;1253;66228;-63
2024/02/04 03:04:38;;;;;;;;;;;;;;;3.77;100.00;98875.67;109078;1253;72710;-62
2024/02/04 03:07:07;;;;;;;;;;;;;;;3.78;100.00;98877.77;109296;1253;60913;-64
2024/02/04 03:09:35;;;;;;;;;;;;;;;3.79;100.00;98876.47;109144;1253;59764;-63
2024/02/04 03:12:03;;;;;;;;;;;;;;;3.79;100.00;98875.75;109076;1253;74699;-62
2024/02/04 03:14:30;;;;;;;;;;;;;;;3.81;100.00;98882.08;109132;1253;66087;-62
2024/02/04 03:16:58;;;;;;;;;;;;;;;3.81;100.00;98878.77;109097;1253;72716;-61
2024/02/04 03:19:26;;;;;;;;;;;;;;;3.82;100.00;98880.21;109023;1253;59804;-61
2024/02/04 03:21:54;;;;;;;;;;;;;;;3.85;100.00;98882.43;109070;1253;59889;-61
2024/02/04 03:24:21;;;;;;;;;;;;;;;3.85;100.00;98876.76;109175;1253;74724;-61
2024/02/04 03:26:49;;;;;;;;;;;;;;;3.86;100.00;98877.20;109093;1253;66859;-61
2024/02/04 03:29:16;;;;;;;;;;;;;;;3.86;100.00;98877.70;109276;1253;72723;-61
2024/02/04 03:31:44;;;;;;;;;;;;;;;3.86;100.00;98877.50;109117;1253;59809;-61
2024/02/04 03:34:11;;;;;;;;;;;;;;;3.88;100.00;98880.27;109117;1253;58899;-61
2024/02/04 03:36:39;;;;;;;;;;;;;;;3.88;100.00;98885.23;109353;1253;74700;-60
2024/02/04 03:39:07;;;;;;;;;;;;;;;3.89;100.00;98884.04;109095;1253;67023;-61
2024/02/04 03:41:35;;;;;;;;;;;;;;;3.91;100.00;98887.25;109021;1253;72612;-62
2024/02/04 03:44:02;;;;;;;;;;;;;;;3.90;100.00;98892.52;109147;1253;60892;-60
2024/02/04 03:46:30;;;;;;;;;;;;;;;3.91;100.00;98893.45;109105;1253;59972;-63
2024/02/04 03:48:57;;;;;;;;;;;;;;;3.91;100.00;98896.54;109158;1253;74650;-66
2024/02/04 03:51:25;;;;;;;;;;;;;;;3.91;100.00;98898.14;109131;1253;65712;-61
2024/02/04 03:53:53;;;;;;;;;;;;;;;3.92;100.00;98897.85;109142;1253;71626;-61
2024/02/04 03:56:20;;;;;;;;;;;;;;;3.93;100.00;98899.61;109124;1253;59815;-61
2024/02/04 03:58:48;;;;;;;;;;;;;;;3.94;100.00;98897.29;109129;1257;59933;-61
2024/02/04 04:01:15;;;;;;;;;;;;;;;3.94;100.00;98900.71;109107;1253;75510;-61
2024/02/04 04:03:43;;;;;;;;;;;;;;;3.94;100.00;98901.60;109163;1253;65509;-62
2024/02/04 04:06:11;;;;;;;;;;;;;;;3.94;100.00;98897.10;109156;1253;71475;-61
2024/02/04 04:08:39;;;;;;;;;;;;;;;3.94;100.00;98900.34;109125;1253;60424;-60
2024/02/04 04:11:10;;;;;;;;;;;;;;;3.97;100.00;98895.58;109137;1253;60168;-66
2024/02/04 04:13:37;;;;;;;;;;;;;;;3.97;100.00;98899.52;109200;1253;74714;-61
2024/02/04 04:16:05;;;;;;;;;;;;;;;3.97;100.00;98901.51;109175;1253;66954;-62
2024/02/04 04:18:33;;;;;;;;;;;;;;;3.98;100.00;98900.89;109116;1253;71385;-61
2024/02/04 04:21:01;;;;;;;;;;;;;;;3.99;100.00;98902.02;109111;1253;61049;-63
2024/02/04 04:23:28;;;;;;;;;;;;;;;3.98;100.00;98904.89;109139;1253;59506;-63
2024/02/04 04:25:56;;;;;;;;;;;;;;;3.97;100.00;98903.41;109134;1253;74733;-63
2024/02/04 04:28:23;;;;;;;;;;;;;;;3.98;100.00;98898.16;109151;1253;66936;-63
2024/02/04 04:30:51;;;;;;;;;;;;;;;3.98;100.00;98900.41;109311;1253;71457;-62
2024/02/04 04:33:18;;;;;;;;;;;;;;;3.97;100.00;98896.62;109091;1253;60885;-64
2024/02/04 04:35:47;;;;;;;;;;;;;;;3.97;100.00;98901.06;109152;1253;58898;-63
2024/02/04 04:38:14;;;;;;;;;;;;;;;3.97;100.00;98906.09;109162;1253;74777;-63
2024/02/04 04:40:42;;;;;;;;;;;;;;;3.95;100.00;98908.42;109144;1253;66211;-63
2024/02/04 04:43:09;;;;;;;;;;;;;;;3.95;100.00;98909.82;109096;1253;73208;-61
2024/02/04 04:45:37;;;;;;;;;;;;;;;3.96;100.00;98907.33;109125;1253;61027;-60
2024/02/04 04:48:05;;;;;;;;;;;;;;;3.97;100.00;98907.49;109145;1253;59832;-60
2024/02/04 04:50:32;;;;;;;;;;;;;;;3.98;100.00;98903.35;109135;1253;73492;-62
2024/02/04 04:53:00;;;;;;;;;;;;;;;3.97;100.00;98908.93;109110;1253;66978;-65
2024/02/04 04:55:27;;;;;;;;;;;;;;;3.97;100.00;98910.86;109131;1253;72695;-61
2024/02/04 04:57:55;;;;;;;;;;;;;;;3.98;100.00;98912.41;109130;1253;61648;-60
2024/02/04 05:00:22;;;;;;;;;;;;;;;3.99;100.00;98914.45;109154;1253;59177;-61
2024/02/04 05:02:50;;;;;;;;;;;;;;;3.99;100.00;98913.01;109156;1253;73819;-61
2024/02/04 05:05:18;;;;;;;;;;;;;;;4.01;100.00;98914.00;109088;1253;65861;-66
2024/02/04 05:07:46;;;;;;;;;;;;;;;4.02;100.00;98913.22;109167;1253;71411;-61
2024/02/04 05:10:14;;;;;;;;;;;;;;;4.02;100.00;98914.73;109161;1253;60880;-63
2024/02/04 05:12:42;;;;;;;;;;;;;;;4.04;100.00;98916.34;109156;1253;59882;-60
2024/02/04 05:15:09;;;;;;;;;;;;;;;4.06;100.00;98916.89;109142;1253;75142;-63
2024/02/04 05:17:37;;;;;;;;;;;;;;;4.06;100.00;98920.59;109146;1253;67113;-63
2024/02/04 05:20:06;;;;;;;;;;;;;;;4.08;100.00;98922.76;109162;1256;72749;-61
2024/02/04 05:22:34;;;;;;;;;;;;;;;4.10;100.00;98922.27;109116;1253;60685;-63
2024/02/04 05:25:01;;;;;;;;;;;;;;;4.10;100.00;98924.06;109167;1253;58871;-63
2024/02/04 05:27:29;;;;;;;;;;;;;;;4.12;100.00;98922.98;109080;1253;74278;-63
2024/02/04 05:29:57;;;;;;;;;;;;;;;4.14;100.00;98921.55;109175;1253;66944;-64
2024/02/04 05:32:24;;;;;;;;;;;;;;;4.17;100.00;98920.77;109120;1253;72751;-63
2024/02/04 05:34:52;;;;;;;;;;;;;;;4.19;100.00;98916.33;109098;1256;61744;-63
2024/02/04 05:37:19;;;;;;;;;;;;;;;4.19;100.00;98917.80;109107;1253;58978;-64
2024/02/04 05:39:47;;;;;;;;;;;;;;;4.21;100.00;98919.44;109169;1253;74744;-60
2024/02/04 05:42:14;;;;;;;;;;;;;;;4.23;100.00;98921.64;109156;1253;66989;-60
2024/02/04 05:44:42;;;;;;;;;;;;;;;4.25;100.00;98921.60;109132;1253;72763;-60
2024/02/04 05:47:10;;;;;;;;;;;;;;;4.28;100.00;98927.50;109128;1253;61852;-60
2024/02/04 05:49:38;;;;;;;;;;;;;;;4.31;100.00;98926.61;109104;1253;59960;-60
2024/02/04 05:52:06;;;;;;;;;;;;;;;4.33;100.00;98924.27;109143;1253;74670;-60
2024/02/04 05:54:37;;;;;;;;;;;;;;;4.36;100.00;98928.79;109154;1253;67603;-60
2024/02/04 05:57:04;;;;;;;;;;;;;;;4.40;100.00;98933.48;109148;1253;73189;-63
2024/02/04 05:59:35;;;;;;;;;;;;;;;4.40;100.00;98936.55;109084;1253;59498;-63
2024/02/04 06:02:03;;;;;;;;;;;;;;;4.42;100.00;98940.85;109150;1253;59291;-60
2024/02/04 06:04:32;;;;;;;;;;;;;;;4.45;100.00;98943.85;109180;1253;73482;-61
2024/02/04 06:07:00;;;;;;;;;;;;;;;4.50;100.00;98946.09;109164;1253;67057;-60
2024/02/04 06:09:27;;;;;;;;;;;;;;;4.53;100.00;98944.20;109104;1253;72735;-63
2024/02/04 06:11:55;;;;;;;;;;;;;;;4.56;100.00;98942.26;109134;1259;60480;-60
2024/02/04 06:14:22;;;;;;;;;;;;;;;4.59;100.00;98946.84;109126;1253;59880;-62
2024/02/04 06:16:50;;;;;;;;;;;;;;;4.62;100.00;98948.10;109184;1253;74694;-60
2024/02/04 06:19:17;;;;;;;;;;;;;;;4.65;100.00;98947.58;109164;1253;67435;-60
2024/02/04 06:21:45;;;;;;;;;;;;;;;4.69;100.00;98943.52;109117;1253;72588;-61
2024/02/04 06:24:13;;;;;;;;;;;;;;;4.72;100.00;98947.17;109139;1253;61743;-61
2024/02/04 06:26:41;;;;;;;;;;;;;;;4.72;100.00;98943.55;109118;1253;58972;-61
2024/02/04 06:29:09;;;;;;;;;;;;;;;4.73;100.00;98949.21;109366;1253;73336;-60
2024/02/04 06:31:36;;;;;;;;;;;;;;;4.75;100.00;98942.04;109107;1253;67170;-61
2024/02/04 06:34:04;;;;;;;;;;;;;;;4.77;100.00;98933.52;109158;1253;72504;-60
2024/02/04 06:36:31;;;;;;;;;;;;;;;4.76;100.00;98932.92;109134;1253;63790;-61
2024/02/04 06:38:59;;;;;;;;;;;;;;;4.75;100.00;98934.20;109161;1253;59905;-60
2024/02/04 06:41:27;;;;;;;;;;;;;;;4.76;100.00;98934.60;109111;1253;73457;-66
2024/02/04 06:43:54;;;;;;;;;;;;;;;4.78;100.00;98933.39;109135;1253;67522;-61
2024/02/04 06:46:25;;;;;;;;;;;;;;;4.79;100.00;98934.77;109122;1253;71478;-61
2024/02/04 06:48:53;;;;;;;;;;;;;;;4.81;100.00;98926.16;109159;1254;60651;-60
2024/02/04 06:51:21;;;;;;;;;;;;;;;4.83;100.00;98929.17;109146;1253;58927;-63
2024/02/04 06:53:49;;;;;;;;;;;;;;;4.85;100.00;98936.55;109166;1253;75444;-61
2024/02/04 06:56:16;;;;;;;;;;;;;;;4.89;100.00;98932.15;109156;1253;65809;-61
2024/02/04 06:58:44;;;;;;;;;;;;;;;4.91;100.00;98929.83;109150;1255;71614;-60
2024/02/04 07:01:11;;;;;;;;;;;;;;;4.94;100.00;98930.98;109165;1253;60463;-63
2024/02/04 07:03:39;;;;;;;;;;;;;;;4.96;100.00;98929.15;109161;1253;59926;-61
2024/02/04 07:06:07;;;;;;;;;;;;;;;4.96;100.00;98927.95;109177;1253;73506;-61
2024/02/04 07:08:35;;;;;;;;;;;;;;;4.98;100.00;98928.30;109169;1258;66950;-62
2024/02/04 07:11:03;;;;;;;;;;;;;;;5.00;100.00;98928.76;109195;1253;72702;-65
2024/02/04 07:13:30;;;;;;;;;;;;;;;5.01;100.00;98927.55;109113;1253;60710;-62
2024/02/04 07:15:58;;;;;;;;;;;;;;;5.03;100.00;98922.88;109164;1259;58911;-61
2024/02/04 07:18:26;;;;;;;;;;;;;;;5.06;100.00;98923.70;109170;1253;73490;-62
2024/02/04 07:20:53;;;;;;;;;;;;;;;5.11;100.00;98929.01;109188;1252;64677;-62
2024/02/04 07:23:21;;;;;;;;;;;;;;;5.17;100.00;98932.58;109134;1256;71560;-65
2024/02/04 07:25:49;;;;;;;;;;;;;;;5.25;100.00;98928.94;109209;1254;60385;-62
2024/02/04 07:28:16;;;;;;;;;;;;;;;5.32;100.00;98926.13;109196;1253;58919;-62
2024/02/04 07:30:44;;;;;;;;;;;;;;;5.35;100.00;98929.23;109174;1253;75120;-64
2024/02/04 07:33:11;;;;;;;;;;;;;;;5.36;100.00;98929.35;109181;1253;66070;-63
2024/02/04 07:35:39;;;;;;;;;;;;;;;5.35;100.00;98929.54;109189;1253;72730;-64
2024/02/04 07:38:07;;;;;;;;;;;;;;;5.35;100.00;98931.33;109160;1257;60914;-64
2024/02/04 07:40:34;;;;;;;;;;;;;;;5.35;100.00;98932.72;109172;1259;59288;-64
2024/02/04 07:43:02;;;;;;;;;;;;;;;5.35;100.00;98933.08;109159;1253;74727;-63
2024/02/04 07:45:29;;;;;;;;;;;;;;;5.38;100.00;98935.12;109136;1253;67466;-67
2024/02/04 07:47:57;;;;;;;;;;;;;;;5.41;100.00;98933.33;109194;1254;72774;-63
2024/02/04 07:50:25;;;;;;;;;;;;;;;5.42;100.00;98934.10;109135;1259;61774;-63
2024/02/04 07:52:53;;;;;;;;;;;;;;;5.45;100.00;98934.13;109224;1253;59871;-63
2024/02/04 07:55:20;;;;;;;;;;;;;;;5.55;100.00;98930.20;109176;1253;74753;-62
2024/02/04 07:57:48;;;;;;;;;;;;;;;5.67;100.00;98935.95;109125;1253;65664;-63
2024/02/04 08:00:15;;;;;;;;;;;;;;;5.78;100.00;98938.27;109159;1253;71626;-62
2024/02/04 08:02:44;;;;;;;;;;;;;;;5.89;100.00;98940.56;109150;1253;60474;-63
2024/02/04 08:05:11;;;;;;;;;;;;;;;5.95;100.00;98940.01;109152;1253;58916;-61
2024/02/04 08:07:39;;;;;;;;;;;;;;;5.94;100.00;98940.35;109174;1253;74731;-63
2024/02/04 08:10:07;;;;;;;;;;;;;;;5.91;100.00;98942.09;109172;1254;66687;-62
2024/02/04 08:12:34;;;;;;;;;;;;;;;5.86;100.00;98940.91;109169;1254;71492;-62
2024/02/04 08:15:02;;;;;;;;;;;;;;;5.84;100.00;98948.19;109177;1259;60377;-61
2024/02/04 08:17:30;;;;;;;;;;;;;;;5.83;100.00;98946.30;109165;1253;59901;-60
2024/02/04 08:19:58;;;;;;;;;;;;;;;5.85;100.00;98942.02;109285;1258;74716;-61
2024/02/04 08:22:26;;;;;;;;;;;;;;;5.89;100.00;98943.85;109376;1253;66927;-60
2024/02/04 08:24:53;;;;;;;;;;;;;;;5.95;100.00;98946.60;109136;1254;71446;-60
2024/02/04 08:27:21;;;;;;;;;;;;;;;6.00;100.00;98948.92;109333;1254;60459;-60
2024/02/04 08:29:48;;;;;;;;;;;;;;;6.03;100.00;98946.40;109122;1260;59894;-64
2024/02/04 08:32:16;;;;;;;;;;;;;;;6.06;100.00;98943.20;109112;1254;74734;-60
2024/02/04 08:34:44;;;;;;;;;;;;;;;6.08;100.00;98940.31;109154;1254;65754;-61
2024/02/04 08:37:11;;;;;;;;;;;;;;;6.13;100.00;98935.30;109175;1254;72747;-60
2024/02/04 08:39:39;;;;;;;;;;;;;;;6.19;100.00;98939.41;109119;1254;61753;-60
2024/02/04 08:42:06;;;;;;;;;;;;;;;6.20;100.00;98937.18;109329;1254;60008;-64
2024/02/04 08:44:34;;;;;;;;;;;;;;;6.18;100.00;98938.77;109142;1254;74722;-59
2024/02/04 08:47:09;;;;;;;;;;;;;;;6.18;100.00;98939.17;109353;1254;66935;-60
2024/02/04 08:49:37;;;;;;;;;;;;;;;6.17;100.00;98947.27;109123;1254;71588;-59
2024/02/04 08:52:06;;;;;;;;;;;;;;;6.16;100.00;98947.73;109125;1254;61659;-59
2024/02/04 08:54:33;;;;;;;;;;;;;;;6.16;100.00;98944.75;109107;1255;58891;-62
2024/02/04 08:57:01;;;;;;;;;;;;;;;6.19;100.00;98939.20;109171;1254;74760;-61
2024/02/04 08:59:28;;;;;;;;;;;;;;;6.25;100.00;98939.97;109161;1253;65803;-60
2024/02/04 09:01:56;;;;;;;;;;;;;;;6.31;100.00;98934.96;109126;1254;72975;-63
2024/02/04 09:04:23;;;;;;;;;;;;;;;6.37;100.00;98927.67;109319;1254;62073;-61
2024/02/04 09:06:51;;;;;;;;;;;;;;;6.41;100.00;98924.09;109138;1254;59920;-60
2024/02/04 09:09:19;;;;;;;;;;;;;;;6.44;100.00;98918.91;109154;1253;75765;-61
2024/02/04 09:11:46;;;;;;;;;;;;;;;6.47;100.00;98913.13;109152;1253;67041;-59
2024/02/04 09:14:14;;;;;;;;;;;;;;;6.54;100.00;98911.63;109084;1255;72325;-59
2024/02/04 09:16:42;;;;;;;;;;;;;;;6.59;100.00;98916.95;109119;1254;60493;-60
2024/02/04 09:19:09;;;;;;;;;;;;;;;6.67;100.00;98914.10;109159;1253;59011;-60
2024/02/04 09:21:37;;;;;;;;;;;;;;;6.74;100.00;98913.30;109142;1256;75635;-60
2024/02/04 09:24:05;;;;;;;;;;;;;;;6.74;100.00;98912.19;109102;1254;66870;-63
2024/02/04 09:26:32;;;;;;;;;;;;;;;6.70;100.00;98906.14;109153;1254;72756;-59
2024/02/04 09:29:00;;;;;;;;;;;;;;;6.60;100.00;98903.14;109061;1253;60479;-59
2024/02/04 09:31:28;;;;;;;;;;;;;;;6.49;100.00;98896.46;109137;1253;58931;-59
2024/02/04 09:33:56;;;;;;;;;;;;;;;6.41;100.00;98893.14;109142;1254;73379;-63
2024/02/04 09:36:24;;;;;;;;;;;;;;;6.34;100.00;98891.14;109303;1253;67273;-59
2024/02/04 09:38:52;;;;;;;;;;;;;;;6.28;100.00;98889.63;109121;1254;71506;-61
2024/02/04 09:41:20;;;;;;;;;;;;;;;6.22;100.00;98891.19;109126;1253;61780;-61
2024/02/04 09:43:47;;;;;;;;;;;;;;;6.18;100.00;98886.58;109176;1254;60178;-60
2024/02/04 09:46:15;;;;;;;;;;;;;;;6.14;100.00;98884.83;109092;1254;73425;-63
2024/02/04 09:48:43;;;;;;;;;;;;;;;6.11;100.00;98884.69;109142;1253;66833;-61
2024/02/04 09:51:11;;;;;;;;;;;;;;;6.07;100.00;98882.16;109160;1254;72767;-62
2024/02/04 09:53:41;;;;;;;;;;;;;;;6.08;100.00;98883.27;109353;1253;60438;-61
2024/02/04 09:56:08;;;;;;;;;;;;;;;6.09;100.00;98880.58;109042;1254;58919;-62
2024/02/04 09:58:36;;;;;;;;;;;;;;;6.15;100.00;98882.29;109113;1257;74725;-61
2024/02/04 10:01:04;;;;;;;;;;;;;;;6.23;100.00;98879.08;109340;1254;65491;-61
2024/02/04 10:03:32;;;;;;;;;;;;;;;6.30;100.00;98881.01;109145;1253;72705;-62
2024/02/04 10:06:00;;;;;;;;;;;;;;;6.37;100.00;98875.88;109148;1253;60444;-62
2024/02/04 10:08:27;;;;;;;;;;;;;;;6.45;100.00;98874.24;109197;1253;59556;-62
2024/02/04 10:10:55;;;;;;;;;;;;;;;6.49;100.00;98875.23;109136;1254;74705;-62
2024/02/04 10:13:24;;;;;;;;;;;;;;;6.55;100.00;98871.23;109207;1254;66156;-61
2024/02/04 10:15:52;;;;;;;;;;;;;;;6.59;100.00;98869.03;109171;1254;72732;-62
2024/02/04 10:18:19;;;;;;;;;;;;;;;6.60;100.00;98869.40;109163;1254;61724;-62
2024/02/04 10:20:47;;;;;;;;;;;;;;;6.63;100.00;98869.61;109138;1254;59844;-62
2024/02/04 10:23:15;;;;;;;;;;;;;;;6.65;100.00;98863.45;109183;1254;74711;-61
2024/02/04 10:25:42;;;;;;;;;;;;;;;6.66;100.00;98863.66;109196;1253;66035;-61
2024/02/04 10:28:10;;;;;;;;;;;;;;;6.71;100.00;98861.05;109182;1254;72141;-62
2024/02/04 10:30:38;;;;;;;;;;;;;;;6.74;100.00;98863.17;109175;1254;60224;-64
2024/02/04 10:33:06;;;;;;;;;;;;;;;6.79;100.00;98861.36;109174;1253;59080;-60
2024/02/04 10:35:33;;;;;;;;;;;;;;;6.86;100.00;98857.21;109316;1253;74756;-61
2024/02/04 10:38:01;;;;;;;;;;;;;;;6.93;100.00;98849.79;109141;1254;66873;-61
2024/02/04 10:40:29;;;;;;;;;;;;;;;6.96;100.00;98843.78;109219;1254;75247;-61
2024/02/04 10:42:58;;;;;;;;;;;;;;;7.04;100.00;98847.08;109056;1254;61567;-61
2024/02/04 10:45:25;;;;;;;;;;;;;;;7.16;100.00;98851.41;109188;1253;59872;-60
2024/02/04 10:47:55;;;;;;;;;;;;;;;7.23;100.00;98848.13;109094;1254;73217;-61
2024/02/04 10:50:24;;;;;;;;;;;;;;;7.25;100.00;98847.17;109152;1253;66981;-60
2024/02/04 10:52:52;;;;;;;;;;;;;;;7.26;100.00;98844.78;109199;1254;72769;-63
2024/02/04 10:55:20;;;;;;;;;;;;;;;7.28;100.00;98841.71;109100;1257;61673;-61
2024/02/04 10:57:48;;;;;;;;;;;;;;;7.32;100.00;98841.09;109136;1253;62567;-60
2024/02/04 11:00:16;;;;;;;;;;;;;;;7.37;100.00;98842.05;109181;1254;75837;-60
2024/02/04 11:02:46;;;;;;;;;;;;;;;7.43;100.00;98841.51;109184;1254;65845;-62
2024/02/04 11:05:13;;;;;;;;;;;;;;;7.48;100.00;98845.50;109250;1254;72350;-60
2024/02/04 11:07:42;;;;;;;;;;;;;;;7.54;100.00;98841.80;109206;1254;63752;-61
2024/02/04 11:10:10;;;;;;;;;;;;;;;7.61;100.00;98838.62;109223;1253;59308;-61
2024/02/04 11:12:38;;;;;;;;;;;;;;;7.67;100.00;98835.90;109236;1253;74685;-62
2024/02/04 11:15:06;;;;;;;;;;;;;;;7.70;100.00;98829.90;109062;1257;67711;-61
2024/02/04 11:17:52;;;;;;;;;;;;;;;7.71;100.00;98826.21;109036;1253;73160;-61
2024/02/04 11:20:23;;;;;;;;;;;;;;;7.74;100.00;98822.59;109279;1254;61769;-61
2024/02/04 11:22:56;;;;;;;;;;;;;;;7.75;100.00;98819.20;109079;1254;204753;-60
2024/02/04 11:25:24;;;;;;;;;;;;;;;7.74;100.00;98818.48;109238;1253;73808;-61
2024/02/04 11:27:52;;;;;;;;;;;;;;;7.74;100.00;98817.80;109231;1253;65778;-62
2024/02/04 11:30:19;;;;;;;;;;;;;;;7.75;100.00;98818.95;109177;1257;76098;-61
2024/02/04 11:32:47;;;;;;;;;;;;;;;7.77;100.00;98813.40;109213;1254;60666;-61
2024/02/04 11:35:14;;;;;;;;;;;;;;;7.75;100.00;98816.95;109248;1256;59872;-61
2024/02/04 11:37:45;;;;;;;;;;;;;;;7.72;100.00;98814.04;109061;1258;77215;-60
2024/02/04 11:40:16;;;;;;;;;;;;;;;7.68;100.00;98815.55;109116;1253;68006;-65
2024/02/04 11:42:45;;;;;;;;;;;;;;;7.67;100.00;98816.48;109223;1254;72879;-60
2024/02/04 11:45:13;;;;;;;;;;;;;;;7.66;100.00;98811.69;109256;1254;59345;-60
2024/02/04 11:47:40;;;;;;;;;;;;;;;7.62;100.00;98811.56;109229;1254;59795;-60
2024/02/04 11:50:11;;;;;;;;;;;;;;;7.60;100.00;98805.98;109226;1253;74741;-62
2024/02/04 11:52:40;;;;;;;;;;;;;;;7.53;100.00;98805.39;109223;1253;69356;-59
2024/02/04 11:55:12;;;;;;;;;;;;;;;7.43;100.00;98808.48;109278;1253;74682;-59
2024/02/04 11:57:40;;;;;;;;;;;;;;;7.37;100.00;98806.73;109222;1253;60179;-59
2024/02/04 12:00:10;;;;;;;;;;;;;;;7.37;100.00;98810.11;109181;1253;58977;-59
2024/02/04 12:02:38;;;;;;;;;;;;;;;7.40;100.00;98809.73;109122;1253;73422;-59
2024/02/04 12:05:06;;;;;;;;;;;;;;;7.43;100.00;98806.17;109262;1253;66935;-59
2024/02/04 12:07:34;;;;;;;;;;;;;;;7.50;100.00;98805.30;109136;1253;71497;-59
2024/02/04 12:10:02;;;;;;;;;;;;;;;7.52;100.00;98808.92;109193;1253;60998;-64
2024/02/04 12:12:31;;;;;;;;;;;;;;;7.52;100.00;98809.89;109268;1253;59889;-60
2024/02/04 12:14:59;;;;;;;;;;;;;;;7.52;100.00;98810.67;109277;1252;74638;-61
2024/02/04 12:17:26;;;;;;;;;;;;;;;7.53;100.00;98808.69;109243;1253;67441;-59
2024/02/04 12:19:54;;;;;;;;;;;;;;;7.49;100.00;98816.51;109250;1253;73175;-59
2024/02/04 12:22:22;;;;;;;;;;;;;;;7.48;100.00;98808.13;109202;1253;60737;-61
2024/02/04 12:24:49;;;;;;;;;;;;;;;7.52;100.00;98810.02;109261;1253;59887;-60
2024/02/04 12:27:17;;;;;;;;;;;;;;;7.57;100.00;98808.41;109087;1253;76712;-59
2024/02/04 12:29:45;;;;;;;;;;;;;;;7.61;100.00;98802.39;109287;1253;70152;-61
2024/02/04 12:32:13;;;;;;;;;;;;;;;7.62;100.00;98804.48;109242;1253;71861;-64
2024/02/04 12:34:41;;;;;;;;;;;;;;;7.64;100.00;98796.80;109196;1254;60607;-60
2024/02/04 12:37:10;;;;;;;;;;;;;;;7.64;100.00;98798.80;109233;1253;59847;-62
2024/02/04 12:39:37;;;;;;;;;;;;;;;7.62;100.00;98799.77;109225;1253;74744;-60